GW5274 Weather Reports


Display with metric or nautical units.
time (UTC)temp
F
wind
direction
speed
MPH
gust
MPH
rain 1hr
in
rain 24hr
in
rain mn
in
humidity
%
barometer
mb
20260508043406 38 121 1.0 1.0 0.00 0.00 0.00 92 1016.9
20260508042902 38 121 1.0 1.0 0.00 0.00 0.00 92 1016.9
20260508042354 38 121 1.0 1.0 0.00 0.00 0.00 91 1016.5
20260508041851 39 121 0.0 1.0 0.00 0.00 0.00 90 1016.4
20260508041347 39 108 1.0 1.0 0.00 0.00 0.00 89 1016.4
20260508040844 39 97 1.0 1.0 0.00 0.00 0.00 89 1016.5
20260508040341 39 137 0.0 1.0 0.00 0.00 0.00 88 1016.4
20260508035839 39 137 0.0 1.0 0.00 0.02 0.02 87 1016.3
20260508035336 39 137 1.0 1.0 0.00 0.02 0.02 86 1016.1
20260508034833 39 137 0.0 0.0 0.00 0.02 0.02 86 1016.2
20260508034330 39 137 0.0 1.0 0.00 0.02 0.02 87 1016.1
20260508033826 39 162 0.0 0.0 0.00 0.02 0.02 88 1016.1
20260508033325 39 113 0.0 1.0 0.00 0.02 0.02 88 1016.1
20260508032822 40 113 0.0 1.0 0.00 0.02 0.02 88 1016.0
20260508032319 40 129 0.0 1.0 0.00 0.02 0.02 85 1015.8
20260508031815 41 129 0.0 1.0 0.00 0.02 0.02 84 1016.0
20260508031312 41 129 1.0 1.0 0.00 0.02 0.02 84 1015.8
20260508030808 41 129 1.0 2.0 0.00 0.02 0.02 81 1015.9
20260508030306 41 129 1.0 1.0 0.00 0.02 0.02 82 1015.8
20260508025802 41 129 1.0 2.0 0.00 0.02 0.02 82 1015.7
20260508025259 41 129 1.0 1.0 0.00 0.02 0.02 81 1015.6
20260508024755 42 129 0.0 2.0 0.00 0.02 0.02 80 1015.7
20260508024252 42 129 1.0 2.0 0.00 0.02 0.02 80 1015.4
20260508023749 42 128 0.0 1.0 0.00 0.02 0.02 80 1015.4
20260508023247 42 128 0.0 1.0 0.00 0.02 0.02 80 1015.4
20260508022742 42 123 0.0 1.0 0.00 0.02 0.02 79 1015.3
20260508022239 42 123 1.0 2.0 0.00 0.02 0.02 79 1015.3
20260508021736 42 138 0.0 1.0 0.00 0.02 0.02 78 1015.1
20260508021231 43 140 1.0 1.0 0.00 0.02 0.02 79 1015.1
20260508020729 43 140 0.0 1.0 0.00 0.02 0.02 77 1015.3
20260508020226 43 140 0.0 1.0 0.00 0.02 0.02 77 1015.0
20260508015723 43 176 1.0 2.0 0.00 0.02 0.02 77 1014.9
20260508015220 43 143 1.0 2.0 0.00 0.02 0.02 81 1014.9
20260508014717 44 145 1.0 2.0 0.00 0.02 0.02 78 1014.9
20260508014214 44 132 0.0 0.0 0.00 0.02 0.02 79 1014.9
20260508013709 44 203 1.0 3.0 0.00 0.02 0.02 79 1015.0
20260508013206 44 215 1.0 2.0 0.00 0.02 0.02 76 1014.7
20260508012704 46 250 1.0 2.0 0.00 0.02 0.02 75 1014.7
20260508012200 46 137 2.0 3.0 0.00 0.02 0.02 65 1014.7
20260508011659 46 212 1.0 2.0 0.00 0.02 0.02 75 1014.3
20260508011156 46 155 1.0 1.0 0.00 0.02 0.02 74 1014.4
20260508010652 47 117 1.0 3.0 0.00 0.02 0.02 71 1014.3
20260508010150 47 116 1.0 1.0 0.00 0.02 0.02 72 1014.2
20260508005648 47 130 1.0 1.0 0.00 0.02 0.02 65 1014.2
20260508005144 47 130 2.0 2.0 0.00 0.02 0.02 68 1014.0
20260508004640 48 123 1.0 2.0 0.00 0.02 0.02 65 1014.0
20260508004136 48 130 0.0 1.0 0.00 0.02 0.02 67 1013.9
20260508003633 48 135 0.0 0.0 0.00 0.02 0.02 67 1014.0
20260508003131 49 135 0.0 1.0 0.00 0.02 0.02 67 1014.0
20260508002627 49 135 1.0 2.0 0.00 0.02 0.02 63 1014.0
20260508002125 49 135 1.0 2.0 0.00 0.02 0.02 64 1013.6
20260508001619 50 135 2.0 2.0 0.00 0.02 0.02 59 1013.8
20260508001116 51 135 1.0 2.0 0.00 0.02 0.02 58 1013.9
20260508000612 52 137 1.0 1.0 0.00 0.02 0.02 54 1013.8
20260508000109 52 357 1.0 1.0 0.00 0.02 0.02 52 1013.9
20260507235606 53 80 0.0 3.0 0.00 0.02 0.02 48 1013.8
20260507235103 53 124 0.0 1.0 0.00 0.02 0.02 51 1013.5
20260507234600 53 295 1.0 2.0 0.00 0.02 0.02 55 1013.9
20260507234056 54 286 5.0 6.0 0.00 0.02 0.02 49 1013.4
20260507233553 55 260 2.0 2.0 0.00 0.02 0.02 48 1013.4
20260507233052 56 44 1.0 3.0 0.00 0.02 0.02 44 1013.4
20260507232547 55 245 1.0 4.0 0.00 0.02 0.02 46 1013.4
20260507232045 55 68 2.0 3.0 0.00 0.02 0.02 48 1013.2
20260507231541 55 232 2.0 8.0 0.00 0.02 0.02 48 1012.9
20260507231039 57 356 1.0 3.0 0.00 0.02 0.02 47 1013.0
20260507230535 55 134 0.0 4.0 0.00 0.02 0.02 46 1013.1
20260507230032 56 292 0.0 3.0 0.00 0.02 0.02 48 1013.1
20260507225527 58 266 4.0 9.0 0.00 0.02 0.02 43 1013.1
20260507225023 59 235 4.0 8.0 0.00 0.02 0.02 42 1013.2
20260507224519 59 87 1.0 6.0 0.00 0.02 0.02 42 1013.0
20260507224016 58 321 3.0 6.0 0.00 0.02 0.02 43 1012.6
20260507223512 57 28 1.0 6.0 0.00 0.02 0.02 44 1012.8
20260507223010 57 155 2.0 4.0 0.00 0.02 0.02 46 1012.8
20260507222507 56 325 2.0 3.0 0.00 0.02 0.02 48 1012.8
20260507222002 58 335 2.0 3.0 0.00 0.02 0.02 48 1012.9
20260507221459 56 35 0.0 6.0 0.00 0.02 0.02 47 1012.8
20260507220956 56 140 2.0 6.0 0.00 0.02 0.02 48 1012.7
20260507220453 59 286 4.0 7.0 0.00 0.02 0.02 45 1012.7
20260507215950 59 68 2.0 4.0 0.00 0.02 0.02 43 1012.6
20260507215446 60 53 4.0 8.0 0.00 0.02 0.02 47 1012.3
20260507214944 60 278 4.0 6.0 0.00 0.02 0.02 47 1012.0
20260507214442 59 43 0.0 4.0 0.00 0.02 0.02 46 1012.1
20260507213937 59 73 6.0 7.0 0.00 0.02 0.02 47 1012.1
20260507213434 59 308 3.0 4.0 0.00 0.02 0.02 47 1012.1
20260507212931 58 262 2.0 6.0 0.00 0.02 0.02 43 1012.0
20260507212426 60 71 2.0 4.0 0.00 0.02 0.02 45 1012.1
20260507211924 60 300 3.0 6.0 0.00 0.02 0.02 44 1011.9
20260507211420 60 310 4.0 6.0 0.00 0.02 0.02 45 1011.8
20260507210917 61 44 2.0 3.0 0.00 0.02 0.02 46 1012.1
20260507210414 59 299 1.0 6.0 0.00 0.02 0.02 47 1012.0
20260507205910 57 289 3.0 9.0 0.00 0.02 0.02 51 1012.0
20260507205408 56 321 1.0 6.0 0.00 0.02 0.02 49 1012.0
20260507204904 56 57 1.0 4.0 0.00 0.02 0.02 51 1012.0
20260507204400 56 319 3.0 6.0 0.00 0.02 0.02 51 1011.9
20260507203858 56 64 2.0 6.0 0.00 0.02 0.02 55 1011.7
20260507203356 58 324 7.0 9.0 0.00 0.02 0.02 50 1011.9
20260507202852 59 339 2.0 7.0 0.00 0.02 0.02 47 1012.0
20260507202348 60 145 1.0 4.0 0.00 0.02 0.02 45 1012.3
20260507201844 59 2 1.0 7.0 0.00 0.02 0.02 47 1012.1
20260507201339 59 36 3.0 6.0 0.00 0.02 0.02 53 1012.1
20260507200836 58 309 4.0 8.0 0.00 0.02 0.02 51 1012.3
20260507200332 58 88 2.0 3.0 0.00 0.02 0.02 56 1012.3
20260507195828 58 25 4.0 6.0 0.00 0.02 0.02 51 1012.5
20260507195326 60 40 2.0 4.0 0.00 0.02 0.02 50 1012.1
20260507194823 60 103 2.0 4.0 0.00 0.02 0.02 54 1012.4
20260507194319 59 346 3.0 4.0 0.00 0.02 0.02 51 1012.4
20260507193816 58 253 2.0 3.0 0.00 0.02 0.02 50 1012.3
20260507193313 59 219 0.0 7.0 0.00 0.02 0.02 52 1012.4
20260507192808 61 313 3.0 6.0 0.00 0.02 0.02 44 1012.5
20260507192306 60 314 4.0 10.0 0.00 0.02 0.02 47 1012.4
20260507191802 58 110 2.0 3.0 0.00 0.02 0.02 54 1012.5
20260507191258 59 338 2.0 3.0 0.00 0.02 0.02 53 1012.6
20260507190755 59 307 2.0 6.0 0.00 0.02 0.02 50 1012.4
20260507190254 60 275 1.0 4.0 0.00 0.02 0.02 55 1012.4
20260507185752 60 94 1.0 13.0 0.00 0.02 0.02 54 1012.4
20260507185248 60 88 1.0 4.0 0.00 0.02 0.02 57 1012.3
20260507184746 59 294 6.0 8.0 0.00 0.02 0.02 51 1012.5
20260507184244 57 21 1.0 9.0 0.00 0.02 0.02 54 1012.7
20260507183741 58 305 4.0 7.0 0.00 0.02 0.02 54 1012.9
20260507183238 58 294 7.0 10.0 0.00 0.02 0.02 55 1012.6
20260507182736 60 48 2.0 7.0 0.00 0.02 0.02 51 1012.5
20260507182235 59 330 3.0 6.0 0.00 0.02 0.02 52 1012.5
20260507181733 59 306 7.0 9.0 0.00 0.02 0.02 51 1012.5
20260507181229 57 316 4.0 6.0 0.00 0.02 0.02 59 1012.5
20260507180726 59 315 1.0 6.0 0.00 0.02 0.02 50 1012.6
20260507180223 58 295 9.0 14.0 0.00 0.02 0.02 53 1012.5
20260507175718 58 325 1.0 4.0 0.00 0.02 0.02 56 1012.6
20260507175215 59 54 2.0 6.0 0.00 0.02 0.02 50 1012.5
20260507174713 59 285 2.0 4.0 0.00 0.02 0.02 54 1012.5
20260507174211 60 39 2.0 3.0 0.00 0.02 0.02 54 1012.7
20260507173708 59 295 2.0 8.0 0.00 0.02 0.02 55 1012.7
20260507173205 58 33 3.0 8.0 0.00 0.02 0.02 54 1012.9
20260507172701 57 264 6.0 10.0 0.00 0.02 0.02 56 1013.0
20260507172159 56 256 5.0 7.0 0.00 0.02 0.02 52 1013.2
20260507171658 57 359 0.0 8.0 0.00 0.02 0.02 56 1013.3
20260507171156 57 312 2.0 4.0 0.00 0.02 0.02 54 1013.3
20260507170653 56 271 0.0 4.0 0.00 0.02 0.02 52 1013.3
20260507170150 55 323 1.0 2.0 0.00 0.02 0.02 55 1013.4
20260507165645 54 316 1.0 4.0 0.00 0.02 0.02 60 1013.6
20260507165142 54 47 2.0 7.0 0.00 0.02 0.02 62 1013.6
20260507164638 54 330 2.0 3.0 0.00 0.02 0.02 63 1013.4
20260507164135 55 74 1.0 6.0 0.00 0.02 0.02 60 1013.4
20260507163632 55 45 1.0 2.0 0.00 0.02 0.02 61 1013.5
20260507163130 55 324 4.0 4.0 0.00 0.02 0.02 60 1013.4
20260507162625 55 300 3.0 4.0 0.00 0.02 0.02 57 1013.6
20260507162122 54 132 1.0 2.0 0.00 0.02 0.02 59 1013.6
20260507161618 54 12 2.0 3.0 0.00 0.02 0.02 61 1013.8
20260507161115 54 292 2.0 6.0 0.00 0.02 0.02 57 1013.9
20260507160612 55 87 3.0 3.0 0.00 0.02 0.02 61 1014.1
20260507160108 55 188 2.0 3.0 0.00 0.02 0.02 55 1013.9
20260507155603 56 302 1.0 6.0 0.00 0.02 0.02 58 1013.6
20260507155100 55 217 1.0 6.0 0.00 0.02 0.02 58 1013.9
20260507154557 55 202 2.0 3.0 0.00 0.02 0.02 57 1014.0
20260507154054 54 288 2.0 2.0 0.00 0.02 0.02 57 1014.1
20260507153551 53 324 1.0 3.0 0.00 0.02 0.02 64 1013.9
20260507153047 54 271 1.0 3.0 0.00 0.02 0.02 61 1014.0
20260507152543 52 321 4.0 4.0 0.00 0.02 0.02 62 1014.1
20260507152040 53 89 0.0 3.0 0.00 0.02 0.02 65 1014.2
20260507151536 53 175 1.0 2.0 0.00 0.02 0.02 64 1014.0
20260507151033 52 303 4.0 7.0 0.00 0.02 0.02 66 1014.1
20260507150530 52 293 4.0 4.0 0.00 0.02 0.02 66 1014.2
20260507150027 53 295 3.0 3.0 0.00 0.02 0.02 66 1014.1
20260507145522 52 105 2.0 4.0 0.00 0.02 0.02 65 1014.2
20260507145020 52 321 1.0 3.0 0.00 0.02 0.02 66 1014.1
20260507144516 52 77 1.0 3.0 0.00 0.02 0.02 70 1014.3
20260507144014 51 107 2.0 8.0 0.00 0.02 0.02 70 1014.4
20260507143511 52 304 3.0 6.0 0.00 0.02 0.02 69 1014.3
20260507143008 52 301 1.0 2.0 0.00 0.02 0.02 70 1014.5
20260507142503 50 308 1.0 2.0 0.00 0.02 0.02 77 1014.5
20260507142001 50 297 2.0 2.0 0.00 0.02 0.02 77 1014.6
20260507141456 49 321 3.0 4.0 0.00 0.02 0.02 76 1014.7
20260507140953 51 323 2.0 3.0 0.00 0.02 0.02 77 1014.8
20260507140450 49 273 2.0 2.0 0.00 0.02 0.02 79 1015.0
20260507135947 49 273 2.0 3.0 0.00 0.02 0.02 80 1014.9
20260507135444 49 242 0.0 1.0 0.00 0.02 0.02 80 1014.9
20260507134941 48 242 0.0 1.0 0.00 0.02 0.02 84 1014.9
20260507134438 48 154 1.0 2.0 0.00 0.02 0.02 80 1015.0
20260507133934 48 207 1.0 2.0 0.00 0.02 0.02 82 1014.8
20260507133430 48 148 0.0 1.0 0.00 0.02 0.02 85 1014.9
20260507132929 48 105 1.0 1.0 0.00 0.02 0.02 84 1015.0
20260507132424 47 147 0.0 1.0 0.00 0.02 0.02 85 1015.4
20260507131921 47 237 1.0 2.0 0.00 0.02 0.02 87 1015.5
20260507131418 46 121 0.0 1.0 0.00 0.02 0.02 89 1015.3
20260507130915 46 132 0.0 1.0 0.00 0.02 0.02 91 1015.4
20260507130412 46 132 0.0 1.0 0.00 0.02 0.02 92 1015.4
20260507125911 46 132 0.0 1.0 0.00 0.02 0.02 92 1015.4
20260507125409 46 132 0.0 1.0 0.00 0.02 0.02 94 1015.5
20260507124906 46 121 0.0 0.0 0.00 0.02 0.02 96 1015.3
20260507124401 46 124 0.0 1.0 0.00 0.02 0.02 98 1015.4
20260507123900 45 124 0.0 0.0 0.00 0.02 0.02 98 1015.5
20260507123357 45 124 0.0 0.0 0.00 0.02 0.02 98 1015.4
20260507122853 45 124 0.0 0.0 0.00 0.02 0.02 98 1015.3
20260507122349 45 124 0.0 1.0 0.00 0.02 0.02 99 1015.6
20260507121845 44 124 0.0 1.0 0.00 0.02 0.02 99 1015.4
20260507121341 44 124 0.0 0.0 0.00 0.02 0.02 99 1015.3
20260507120838 44 124 0.0 0.0 0.00 0.02 0.02 99 1015.5
20260507120334 44 124 0.0 1.0 0.00 0.02 0.02 99 1015.3
20260507115830 44 124 1.0 1.0 0.00 0.02 0.02 98 1015.4
20260507115326 44 120 2.0 2.0 0.00 0.02 0.02 97 1015.4
20260507114822 44 110 1.0 2.0 0.00 0.02 0.02 96 1015.3
20260507114319 44 119 4.0 4.0 0.00 0.02 0.02 96 1015.1
20260507113817 45 104 1.0 2.0 0.00 0.02 0.02 96 1015.3
20260507113313 45 108 1.0 1.0 0.00 0.02 0.02 98 1014.9
20260507112811 45 108 0.0 0.0 0.00 0.02 0.02 98 1014.7
20260507112308 45 108 0.0 1.0 0.00 0.02 0.02 99 1014.7
20260507111806 45 108 0.0 2.0 0.00 0.02 0.02 99 1014.7
20260507111302 45 112 0.0 0.0 0.00 0.02 0.02 99 1014.6
20260507110758 45 112 0.0 0.0 0.00 0.02 0.02 99 1014.5
20260507110255 45 112 0.0 0.0 0.00 0.02 0.02 99 1014.6
20260507105752 45 112 0.0 0.0 0.00 0.02 0.02 99 1014.6
20260507105248 45 112 0.0 0.0 0.00 0.02 0.02 99 1014.3
20260507104745 45 112 0.0 1.0 0.00 0.02 0.02 99 1014.2
20260507104242 45 111 0.0 1.0 0.00 0.02 0.02 99 1014.2
20260507103738 46 111 1.0 1.0 0.00 0.02 0.02 99 1014.4
20260507103234 46 108 0.0 1.0 0.00 0.02 0.02 99 1014.3
20260507102730 46 108 1.0 1.0 0.00 0.02 0.02 99 1014.2
20260507102227 46 108 0.0 2.0 0.00 0.02 0.02 99 1014.3
20260507101723 46 14 1.0 1.0 0.00 0.02 0.02 99 1014.3
20260507101219 46 26 1.0 1.0 0.00 0.02 0.02 99 1014.2
20260507100716 46 25 1.0 3.0 0.00 0.02 0.02 99 1014.3
20260507100214 46 103 0.0 1.0 0.00 0.02 0.02 99 1014.3
20260507095712 47 158 0.0 1.0 0.00 0.02 0.02 99 1014.1
20260507095208 47 308 0.0 0.0 0.00 0.02 0.02 99 1014.0
20260507094705 47 308 0.0 1.0 0.00 0.02 0.02 99 1014.1
20260507094202 47 307 0.0 0.0 0.00 0.02 0.02 99 1013.9
20260507093659 47 308 0.0 0.0 0.00 0.02 0.02 99 1013.9
20260507093158 47 307 0.0 0.0 0.00 0.02 0.02 99 1013.9
20260507092654 47 307 0.0 1.0 0.07 0.02 0.02 99 1013.5
20260507092151 47 307 0.0 0.0 0.07 0.02 0.02 99 1013.5
20260507091647 47 307 0.0 0.0 0.00 0.01 0.01 99 1013.6
20260507091144 47 307 0.0 0.0 0.00 0.01 0.01 99 1013.6
20260507090639 47 307 0.0 0.0 0.00 0.01 0.01 99 1013.8
20260507090137 47 307 0.0 0.0 0.00 0.01 0.01 99 1013.9
20260507085634 47 307 1.0 1.0 0.00 0.01 0.01 99 1014.1
20260507085130 47 314 0.0 0.0 0.00 0.01 0.01 99 1013.8
20260507084627 47 314 0.0 0.0 0.00 0.01 0.01 99 1014.1
20260507084124 47 314 0.0 0.0 0.00 0.01 0.01 99 1014.0
20260507083621 47 314 0.0 0.0 0.00 0.01 0.01 99 1014.1
20260507083118 47 314 0.0 0.0 0.00 0.01 0.01 99 1014.0
20260507082613 47 314 1.0 1.0 0.00 0.01 0.01 99 1014.0
20260507082110 47 314 0.0 0.0 0.00 0.01 0.01 99 1013.8
20260507081606 47 314 0.0 0.0 0.00 0.01 0.01 99 1014.0
20260507081103 47 314 0.0 0.0 0.00 0.01 0.01 99 1013.8
20260507080559 47 314 0.0 0.0 0.00 0.01 0.01 99 1014.0
20260507080056 47 314 0.0 0.0 0.00 0.01 0.01 99 1014.1
20260507075551 47 314 0.0 0.0 0.00 0.01 0.01 99 1014.2
20260507075047 47 314 0.0 0.0 0.00 0.01 0.01 99 1014.3
20260507074544 47 314 0.0 0.0 0.00 0.01 0.01 99 1014.1
20260507074043 47 314 0.0 0.0 0.00 0.01 0.01 99 1014.2
20260507073538 47 314 0.0 0.0 0.00 0.01 0.01 99 1014.0
20260507073035 47 314 0.0 0.0 0.00 0.01 0.01 99 1014.2
20260507072533 47 314 0.0 0.0 0.00 0.01 0.01 99 1014.1
20260507072030 47 314 0.0 0.0 0.00 0.01 0.01 99 1014.1
20260507071527 47 314 0.0 0.0 0.00 0.01 0.01 99 1014.2
20260507071024 47 314 0.0 0.0 0.00 0.01 0.01 99 1014.3
20260507070521 47 314 1.0 1.0 0.00 0.01 0.01 99 1013.9
20260507070018 47 314 1.0 3.0 0.00 0.01 0.01 99 1013.9
20260507065514 47 326 0.0 1.0 0.00 0.01 0.01 99 1013.9
20260507065011 47 20 0.0 1.0 0.00 0.01 0.01 99 1013.9
20260507064509 47 20 0.0 0.0 0.00 0.01 0.01 99 1014.1
20260507064008 47 10 1.0 2.0 0.00 0.01 0.01 99 1013.9
20260507063504 48 63 1.0 1.0 0.00 0.01 0.01 99 1014.2
20260507063001 48 110 0.0 0.0 0.00 0.01 0.01 99 1013.9
20260507062458 48 74 0.0 1.0 0.00 0.01 0.01 99 1014.0
20260507061955 48 74 1.0 2.0 0.00 0.01 0.01 99 1013.9
20260507061453 49 38 1.0 2.0 0.00 0.01 0.01 99 1014.0
20260507060952 49 51 0.0 0.0 0.00 0.01 0.01 99 1014.2
20260507060448 49 103 0.0 1.0 0.00 0.01 0.01 99 1014.2
20260507055945 49 110 0.0 1.0 0.00 0.01 0.01 99 1014.4
20260507055440 49 110 0.0 0.0 0.05 0.01 0.01 99 1014.3
20260507054937 49 107 0.0 1.0 0.05 0.01 0.01 99 1014.2
20260507054433 49 107 0.0 1.0 0.00 0.00 0.00 99 1014.4
20260507053931 50 115 0.0 1.0 0.00 0.00 0.00 99 1014.3
20260507053428 50 115 0.0 1.0 0.00 0.00 0.00 99 1014.5
20260507052926 50 115 0.0 0.0 0.00 0.00 0.00 99 1014.6
20260507052423 50 115 0.0 0.0 0.00 0.00 0.00 99 1014.6
20260507051920 50 115 0.0 1.0 0.00 0.00 0.00 99 1014.5
20260507051418 50 115 0.0 0.0 0.00 0.00 0.00 99 1014.8
20260507050915 50 115 0.0 0.0 0.00 0.00 0.00 99 1014.6
20260507050411 50 115 0.0 0.0 0.00 0.00 0.00 99 1014.7
20260507045908 51 115 0.0 0.0 0.00 0.00 0.00 99 1014.4
20260507045405 51 115 0.0 0.0 0.00 0.00 0.00 99 1014.3
20260507044902 50 115 0.0 0.0 0.00 0.00 0.00 99 1014.4
20260507044359 50 115 0.0 0.0 0.00 0.00 0.00 99 1014.2
20260507043855 50 115 0.0 0.0 0.00 0.00 0.00 99 1014.3